Time;durP1;ratioP1;P1;durP2;ratioP2;P2;SDS_P1;SDS_P2;PMS_P1;PMS_P2;Temp;Humidity;BMP_temperature;BMP_pressure;BME280_temperature;BME280_humidity;BME280_pressure;Samples;Min_cycle;Max_cycle;Signal;HPM_P1;HPM_P2
2023/08/23 00:04:57;;;;;;;;;;;24.00;61.80;;;;;;10113850;28;113988;-54
2023/08/23 00:09:59;;;;;;;;;;;24.10;61.80;;;;;;10097566;28;97132;-51
2023/08/23 00:15:01;;;;;;;;;;;24.00;61.80;;;;;;10116519;28;94576;-54
2023/08/23 00:20:04;;;;;;;;;;;24.00;61.80;;;;;;10116632;28;95145;-58
2023/08/23 00:25:06;;;;;;;;;;;24.00;62.80;;;;;;10116358;28;94469;-54
2023/08/23 00:30:08;;;;;;;;;;;24.00;61.80;;;;;;10115945;28;93444;-53
2023/08/23 00:35:10;;;;;;;;;;;24.00;61.70;;;;;;10114362;28;93431;-54
2023/08/23 00:40:11;;;;;;;;;;;24.00;61.60;;;;;;10115342;28;94869;-54
2023/08/23 00:45:13;;;;;;;;;;;24.00;61.70;;;;;;10118639;28;92629;-55
2023/08/23 00:50:15;;;;;;;;;;;24.00;61.70;;;;;;10114430;28;94348;-54
2023/08/23 00:55:17;;;;;;;;;;;24.00;62.60;;;;;;10113042;28;96561;-54
2023/08/23 01:00:19;;;;;;;;;;;24.00;61.70;;;;;;10113059;28;96425;-55
2023/08/23 01:05:24;;;;;;;;;;;24.00;61.60;;;;;;10113058;28;94479;-53
2023/08/23 01:10:34;;;;;;;;;;;24.00;61.60;;;;;;10114712;28;94450;-57
2023/08/23 01:15:36;;;;;;;;;;;24.00;61.60;;;;;;10115443;28;94430;-54
2023/08/23 01:20:38;;;;;;;;;;;24.00;61.60;;;;;;10115639;28;94630;-54
2023/08/23 01:25:48;;;;;;;;;;;24.00;61.60;;;;;;10118669;28;93456;-55
2023/08/23 01:30:50;;;;;;;;;;;24.00;61.60;;;;;;10118915;28;93438;-53
2023/08/23 01:35:57;;;;;;;;;;;24.00;61.50;;;;;;10087809;28;92701;-55
2023/08/23 01:40:59;;;;;;;;;;;24.00;61.50;;;;;;10104163;28;94469;-54
2023/08/23 01:46:01;;;;;;;;;;;24.00;61.30;;;;;;10128669;28;94527;-55
2023/08/23 01:51:03;;;;;;;;;;;24.00;61.30;;;;;;10116901;28;96442;-55
2023/08/23 01:56:05;;;;;;;;;;;24.00;61.20;;;;;;10096586;28;94531;-54
2023/08/23 02:01:07;;;;;;;;;;;24.00;61.20;;;;;;10118444;28;94655;-55
2023/08/23 02:06:09;;;;;;;;;;;23.90;61.10;;;;;;10117652;28;94538;-55
2023/08/23 02:11:10;;;;;;;;;;;23.90;61.10;;;;;;10102853;28;93482;-55
2023/08/23 02:16:12;;;;;;;;;;;23.90;61.10;;;;;;10120845;28;94912;-55
2023/08/23 02:21:14;;;;;;;;;;;23.90;61.10;;;;;;10120771;28;94772;-55
2023/08/23 02:26:15;;;;;;;;;;;23.90;61.10;;;;;;10122366;28;93700;-55
2023/08/23 02:31:17;;;;;;;;;;;23.90;61.10;;;;;;10121503;28;94473;-67
2023/08/23 02:36:20;;;;;;;;;;;23.90;61.00;;;;;;10117636;28;93787;-53
2023/08/23 02:41:21;;;;;;;;;;;23.90;60.90;;;;;;10099882;28;95883;-55
2023/08/23 02:46:24;;;;;;;;;;;23.80;60.80;;;;;;10119804;28;94046;-54
2023/08/23 02:51:25;;;;;;;;;;;23.80;60.80;;;;;;10117267;28;93679;-54
2023/08/23 02:56:27;;;;;;;;;;;23.90;60.80;;;;;;10113710;28;94412;-53
2023/08/23 03:01:29;;;;;;;;;;;23.80;60.80;;;;;;10118995;28;94420;-54
2023/08/23 03:06:31;;;;;;;;;;;23.80;60.80;;;;;;10118176;28;93507;-54
2023/08/23 03:11:33;;;;;;;;;;;23.80;60.80;;;;;;10117791;28;93972;-54
2023/08/23 03:16:34;;;;;;;;;;;23.80;60.70;;;;;;10120523;28;93911;-55
2023/08/23 03:21:36;;;;;;;;;;;23.80;60.80;;;;;;10118309;28;94625;-55
2023/08/23 03:26:38;;;;;;;;;;;23.80;60.70;;;;;;10117739;28;93514;-55
2023/08/23 03:31:40;;;;;;;;;;;23.80;60.80;;;;;;10117291;28;96188;-54
2023/08/23 03:36:42;;;;;;;;;;;23.70;60.70;;;;;;10117980;28;96373;-55
2023/08/23 03:41:43;;;;;;;;;;;23.80;60.80;;;;;;10117376;28;94728;-55
2023/08/23 03:46:45;;;;;;;;;;;23.70;60.80;;;;;;10116533;28;94758;-55
2023/08/23 03:51:47;;;;;;;;;;;23.70;60.80;;;;;;10117198;28;93278;-53
2023/08/23 03:56:50;;;;;;;;;;;23.70;60.80;;;;;;10105337;28;93836;-53
2023/08/23 04:01:52;;;;;;;;;;;23.70;60.80;;;;;;10113583;28;94201;-55
2023/08/23 04:06:54;;;;;;;;;;;23.70;60.80;;;;;;10100826;28;93237;-55
2023/08/23 04:11:55;;;;;;;;;;;23.70;60.80;;;;;;10116012;28;94687;-56
2023/08/23 04:16:57;;;;;;;;;;;23.60;60.80;;;;;;10114513;28;94283;-55
2023/08/23 04:21:59;;;;;;;;;;;23.60;60.80;;;;;;10112511;28;96829;-55
2023/08/23 04:27:01;;;;;;;;;;;23.60;60.90;;;;;;10116177;28;94502;-54
2023/08/23 04:32:09;;;;;;;;;;;23.60;60.90;;;;;;10106105;28;93494;-55
2023/08/23 04:37:10;;;;;;;;;;;23.60;61.00;;;;;;10114794;28;94809;-55
2023/08/23 04:42:12;;;;;;;;;;;23.60;61.00;;;;;;10106582;28;94453;-55
2023/08/23 04:52:28;;;;;;;;;;;23.50;61.00;;;;;;10172380;28;93767;-57
2023/08/23 04:57:30;;;;;;;;;;;23.60;61.10;;;;;;10185844;28;93814;-57
2023/08/23 05:02:32;;;;;;;;;;;23.60;61.00;;;;;;10172235;28;94870;-55
2023/08/23 05:07:34;;;;;;;;;;;23.50;61.00;;;;;;10189898;28;94226;-58
2023/08/23 05:12:37;;;;;;;;;;;23.50;60.80;;;;;;10193603;28;96664;-56
2023/08/23 05:17:39;;;;;;;;;;;23.50;60.80;;;;;;10195157;28;94661;-55
2023/08/23 05:22:40;;;;;;;;;;;23.50;60.80;;;;;;10193104;28;93437;-54
2023/08/23 05:27:42;;;;;;;;;;;23.60;62.10;;;;;;10189131;28;94686;-57
2023/08/23 05:32:44;;;;;;;;;;;23.60;62.30;;;;;;10192868;28;93816;-57
2023/08/23 05:37:46;;;;;;;;;;;23.60;62.40;;;;;;10191739;28;94631;-57
2023/08/23 05:42:48;;;;;;;;;;;23.60;62.30;;;;;;10206053;28;95019;-57
2023/08/23 05:47:50;;;;;;;;;;;23.60;62.60;;;;;;10187415;28;92765;-57
2023/08/23 05:52:52;;;;;;;;;;;23.60;61.90;;;;;;10183483;28;94197;-57
2023/08/23 05:57:54;;;;;;;;;;;23.60;61.80;;;;;;10194305;28;94332;-55
2023/08/23 06:02:56;;;;;;;;;;;23.60;61.70;;;;;;10192521;28;95703;-55
2023/08/23 06:07:57;;;;;;;;;;;23.60;61.80;;;;;;10194080;28;93638;-56
2023/08/23 06:12:59;;;;;;;;;;;23.60;61.70;;;;;;10201004;28;93474;-57
2023/08/23 06:18:01;;;;;;;;;;;23.60;61.70;;;;;;10216268;28;93363;-58
2023/08/23 06:23:03;;;;;;;;;;;23.60;61.70;;;;;;10214702;28;93450;-55
2023/08/23 06:28:05;;;;;;;;;;;23.60;61.70;;;;;;10200344;28;94427;-55
2023/08/23 06:33:08;;;;;;;;;;;23.60;61.70;;;;;;10200954;28;94322;-55
2023/08/23 06:38:11;;;;;;;;;;;23.60;61.70;;;;;;10188421;28;93672;-55
2023/08/23 06:43:17;;;;;;;;;;;23.60;61.70;;;;;;10198654;28;94451;-56
2023/08/23 06:48:19;;;;;;;;;;;23.60;61.70;;;;;;10194369;28;92947;-56
2023/08/23 06:53:21;;;;;;;;;;;23.60;61.70;;;;;;10186414;28;95817;-56
2023/08/23 06:58:22;;;;;;;;;;;23.60;61.70;;;;;;10195264;28;94434;-56
2023/08/23 07:03:25;;;;;;;;;;;23.60;61.80;;;;;;10200440;28;93830;-56
2023/08/23 07:08:27;;;;;;;;;;;23.60;61.90;;;;;;10200000;28;93454;-56
2023/08/23 07:13:28;;;;;;;;;;;23.60;61.80;;;;;;10200182;28;94428;-54
2023/08/23 07:18:30;;;;;;;;;;;23.70;61.80;;;;;;10198858;28;93494;-56
2023/08/23 07:23:32;;;;;;;;;;;23.70;62.80;;;;;;10199737;28;93410;-56
2023/08/23 07:28:34;;;;;;;;;;;23.70;61.70;;;;;;10199258;28;93686;-56
2023/08/23 07:33:36;;;;;;;;;;;23.70;61.80;;;;;;10210523;28;92896;-55
2023/08/23 07:38:39;;;;;;;;;;;23.70;61.80;;;;;;10197891;28;93454;-56
2023/08/23 07:43:41;;;;;;;;;;;23.70;61.80;;;;;;10194950;28;95987;-56
2023/08/23 07:48:42;;;;;;;;;;;23.70;61.70;;;;;;10197231;28;92855;-56
2023/08/23 07:53:44;;;;;;;;;;;23.70;61.80;;;;;;10189736;28;93607;-56
2023/08/23 07:58:46;;;;;;;;;;;23.70;61.80;;;;;;10198276;28;94393;-56
2023/08/23 08:03:48;;;;;;;;;;;23.70;61.80;;;;;;10199603;28;93444;-56
2023/08/23 08:08:50;;;;;;;;;;;23.70;61.80;;;;;;10197193;28;94537;-56
2023/08/23 08:13:51;;;;;;;;;;;23.70;61.90;;;;;;10196796;28;94603;-56
2023/08/23 08:18:54;;;;;;;;;;;23.70;61.80;;;;;;10197472;28;93011;-56
2023/08/23 08:23:57;;;;;;;;;;;23.70;61.80;;;;;;10209888;28;94420;-56
2023/08/23 08:28:59;;;;;;;;;;;23.80;61.80;;;;;;10196857;28;93814;-56
2023/08/23 08:34:00;;;;;;;;;;;23.80;61.80;;;;;;10195099;28;95914;-56
2023/08/23 08:39:03;;;;;;;;;;;23.80;61.80;;;;;;10196502;28;93842;-56
2023/08/23 08:44:11;;;;;;;;;;;23.80;61.80;;;;;;10195430;28;93505;-56
2023/08/23 08:49:12;;;;;;;;;;;23.80;62.00;;;;;;10194806;28;93633;-56
2023/08/23 08:54:17;;;;;;;;;;;23.80;61.90;;;;;;10197073;28;94679;-56
2023/08/23 08:59:20;;;;;;;;;;;23.80;62.00;;;;;;10185911;28;93910;-56
2023/08/23 09:04:21;;;;;;;;;;;23.80;62.00;;;;;;10196045;28;94392;-56
2023/08/23 09:09:24;;;;;;;;;;;23.80;62.00;;;;;;10196662;28;93762;-57
2023/08/23 09:14:27;;;;;;;;;;;23.80;62.00;;;;;;10208228;28;93396;-56
2023/08/23 09:19:29;;;;;;;;;;;23.80;62.10;;;;;;10195378;28;93386;-56
2023/08/23 09:24:31;;;;;;;;;;;23.80;62.10;;;;;;10191708;28;95925;-71
2023/08/23 09:29:33;;;;;;;;;;;23.80;62.10;;;;;;10195098;28;94795;-57
2023/08/23 09:34:35;;;;;;;;;;;23.80;62.10;;;;;;10196363;28;93955;-56
2023/08/23 09:39:37;;;;;;;;;;;23.80;62.00;;;;;;10196923;28;93460;-56
2023/08/23 09:44:46;;;;;;;;;;;23.90;62.10;;;;;;10196461;28;94455;-56
2023/08/23 09:49:48;;;;;;;;;;;23.90;62.00;;;;;;10201070;28;93435;-56
2023/08/23 09:54:59;;;;;;;;;;;24.00;61.90;;;;;;10201811;28;93454;-56
2023/08/23 10:00:16;;;;;;;;;;;24.10;61.70;;;;;;10189353;28;94495;-56
2023/08/23 10:05:18;;;;;;;;;;;24.20;61.40;;;;;;10200082;28;94383;-56
2023/08/23 10:10:20;;;;;;;;;;;24.40;61.20;;;;;;10208175;28;93846;-56
2023/08/23 10:15:30;;;;;;;;;;;24.40;60.90;;;;;;10198192;28;96774;-56
2023/08/23 10:20:36;;;;;;;;;;;24.50;60.90;;;;;;10214467;28;93994;-57
2023/08/23 10:25:37;;;;;;;;;;;24.60;60.80;;;;;;10200559;28;94357;-57
2023/08/23 10:30:41;;;;;;;;;;;24.60;60.60;;;;;;10199955;28;94639;-57
2023/08/23 10:35:44;;;;;;;;;;;24.60;60.50;;;;;;10200256;28;93539;-57
2023/08/23 10:40:47;;;;;;;;;;;24.70;60.50;;;;;;10200840;28;93449;-57
2023/08/23 10:45:50;;;;;;;;;;;24.70;60.50;;;;;;10188449;28;93954;-57
2023/08/23 10:50:53;;;;;;;;;;;24.70;60.50;;;;;;10200443;28;92821;-57
2023/08/23 10:55:56;;;;;;;;;;;24.70;60.50;;;;;;10210220;28;93016;-57
2023/08/23 11:00:58;;;;;;;;;;;24.70;60.60;;;;;;10198774;28;94424;-57
2023/08/23 11:06:00;;;;;;;;;;;24.60;60.60;;;;;;10196364;28;95596;-57
2023/08/23 11:11:04;;;;;;;;;;;24.60;60.70;;;;;;10199356;28;94286;-57
2023/08/23 11:16:06;;;;;;;;;;;24.60;60.80;;;;;;10200131;28;93193;-56
2023/08/23 11:21:09;;;;;;;;;;;24.60;61.00;;;;;;10198746;28;93683;-56
2023/08/23 11:26:11;;;;;;;;;;;24.50;61.00;;;;;;10199183;28;93473;-57
2023/08/23 11:31:13;;;;;;;;;;;24.50;61.10;;;;;;10200906;28;94797;-57
2023/08/23 11:36:18;;;;;;;;;;;24.50;61.20;;;;;;10198384;28;93511;-56
2023/08/23 11:41:28;;;;;;;;;;;24.50;61.20;;;;;;10213503;28;93727;-57
2023/08/23 11:46:29;;;;;;;;;;;24.50;61.30;;;;;;10203050;28;94472;-56
2023/08/23 11:51:39;;;;;;;;;;;24.40;61.30;;;;;;10197676;28;95889;-58
2023/08/23 11:56:41;;;;;;;;;;;24.40;61.50;;;;;;10195779;28;96566;-57
2023/08/23 12:01:43;;;;;;;;;;;24.40;61.60;;;;;;10197642;28;93500;-57
2023/08/23 12:06:45;;;;;;;;;;;24.30;61.60;;;;;;10197109;28;93412;-57
2023/08/23 12:11:47;;;;;;;;;;;24.30;61.70;;;;;;10196515;28;94700;-57
2023/08/23 12:16:49;;;;;;;;;;;24.30;61.70;;;;;;10197069;28;93935;-56
2023/08/23 12:21:51;;;;;;;;;;;24.30;61.70;;;;;;10196096;28;93352;-56
2023/08/23 12:26:53;;;;;;;;;;;24.30;61.80;;;;;;10196386;28;94253;-57
2023/08/23 12:31:56;;;;;;;;;;;24.30;61.90;;;;;;10205464;28;93740;-61
2023/08/23 12:36:59;;;;;;;;;;;24.30;62.00;;;;;;10194843;28;94425;-57
2023/08/23 12:42:02;;;;;;;;;;;24.30;62.00;;;;;;10196884;28;94530;-57
2023/08/23 12:47:04;;;;;;;;;;;24.30;61.90;;;;;;10189572;28;96214;-57
2023/08/23 12:52:06;;;;;;;;;;;24.30;62.00;;;;;;10205378;28;92733;-57
2023/08/23 12:57:08;;;;;;;;;;;24.30;62.00;;;;;;10195679;28;93448;-57
2023/08/23 13:02:10;;;;;;;;;;;24.30;62.00;;;;;;10196958;28;92816;-57
2023/08/23 13:07:13;;;;;;;;;;;24.30;62.00;;;;;;10193442;28;93259;-55
2023/08/23 13:12:15;;;;;;;;;;;24.30;62.00;;;;;;10194842;28;93422;-57
2023/08/23 13:17:16;;;;;;;;;;;24.30;62.00;;;;;;10195406;28;93453;-56
2023/08/23 13:22:18;;;;;;;;;;;24.30;62.00;;;;;;10195421;28;92774;-57
2023/08/23 13:27:20;;;;;;;;;;;24.30;62.00;;;;;;10195361;28;94022;-57
2023/08/23 13:32:22;;;;;;;;;;;24.30;61.90;;;;;;10199591;28;93881;-57
2023/08/23 13:37:28;;;;;;;;;;;24.30;61.90;;;;;;10209971;28;96977;-57
2023/08/23 13:42:30;;;;;;;;;;;24.40;62.50;;;;;;10195202;28;92609;-57
2023/08/23 13:47:32;;;;;;;;;;;24.40;62.00;;;;;;10195516;28;94224;-57
2023/08/23 13:52:34;;;;;;;;;;;24.40;62.00;;;;;;10196088;28;94067;-57
2023/08/23 13:57:37;;;;;;;;;;;24.40;62.00;;;;;;10194290;28;93402;-57
2023/08/23 14:02:39;;;;;;;;;;;24.40;62.00;;;;;;10194093;28;94793;-58
2023/08/23 14:07:43;;;;;;;;;;;24.40;62.00;;;;;;10194884;28;94458;-56
2023/08/23 14:12:45;;;;;;;;;;;24.40;62.10;;;;;;10195158;28;93703;-56
2023/08/23 14:17:47;;;;;;;;;;;24.40;62.00;;;;;;10194787;28;94683;-57
2023/08/23 14:22:49;;;;;;;;;;;24.40;62.00;;;;;;10193618;28;95017;-57
2023/08/23 14:27:51;;;;;;;;;;;24.40;62.00;;;;;;10197032;28;95777;-57
2023/08/23 14:32:54;;;;;;;;;;;24.40;62.00;;;;;;10188772;28;93815;-63
2023/08/23 14:37:56;;;;;;;;;;;24.40;62.10;;;;;;10198548;28;93840;-56
2023/08/23 14:42:58;;;;;;;;;;;24.40;62.10;;;;;;10198237;28;93395;-57
2023/08/23 14:48:00;;;;;;;;;;;24.40;62.10;;;;;;10199821;28;94445;-56
2023/08/23 14:53:02;;;;;;;;;;;24.40;62.10;;;;;;10190347;28;93729;-57
2023/08/23 14:58:04;;;;;;;;;;;24.40;62.10;;;;;;10203532;28;93827;-57
2023/08/23 15:03:06;;;;;;;;;;;24.40;62.10;;;;;;10198469;28;94037;-57
2023/08/23 15:08:08;;;;;;;;;;;24.40;62.10;;;;;;10199831;28;93484;-57
2023/08/23 15:13:12;;;;;;;;;;;24.40;62.10;;;;;;10199189;28;94370;-57
2023/08/23 15:18:14;;;;;;;;;;;24.40;62.10;;;;;;10211142;28;95851;-57
2023/08/23 15:23:16;;;;;;;;;;;24.40;62.10;;;;;;10197712;28;93425;-56
2023/08/23 15:28:18;;;;;;;;;;;24.40;62.20;;;;;;10198160;28;93402;-57
2023/08/23 15:33:20;;;;;;;;;;;24.40;62.20;;;;;;10198268;28;94120;-56
2023/08/23 15:38:22;;;;;;;;;;;24.40;62.30;;;;;;10198434;28;94964;-57
2023/08/23 15:43:27;;;;;;;;;;;24.40;62.20;;;;;;10197806;28;94469;-57
2023/08/23 15:48:29;;;;;;;;;;;24.40;62.20;;;;;;10199686;28;93125;-57
2023/08/23 15:53:30;;;;;;;;;;;24.40;62.20;;;;;;10198949;28;93699;-57
2023/08/23 15:58:32;;;;;;;;;;;24.40;62.20;;;;;;10198079;28;95265;-59
2023/08/23 16:03:34;;;;;;;;;;;24.40;62.20;;;;;;10198387;28;94077;-57
2023/08/23 16:08:36;;;;;;;;;;;24.40;62.20;;;;;;10194964;28;96496;-56
2023/08/23 16:13:39;;;;;;;;;;;24.40;62.10;;;;;;10197170;28;93492;-57
2023/08/23 16:18:41;;;;;;;;;;;24.40;62.10;;;;;;10195823;28;93436;-56
2023/08/23 16:23:43;;;;;;;;;;;24.40;62.30;;;;;;10212625;28;93762;-57
2023/08/23 16:28:46;;;;;;;;;;;24.40;62.10;;;;;;10188921;28;94520;-57
2023/08/23 16:33:48;;;;;;;;;;;24.40;62.30;;;;;;10197959;28;94766;-55
2023/08/23 16:38:50;;;;;;;;;;;24.40;62.00;;;;;;10197262;28;93493;-54
2023/08/23 16:43:52;;;;;;;;;;;24.50;62.40;;;;;;10210771;28;93768;-54
2023/08/23 16:48:54;;;;;;;;;;;24.80;63.60;;;;;;10195337;28;94135;-55
2023/08/23 16:53:56;;;;;;;;;;;24.90;64.10;;;;;;10193542;28;94605;-55
2023/08/23 16:58:58;;;;;;;;;;;25.10;62.70;;;;;;10181260;28;96316;-53
2023/08/23 17:04:00;;;;;;;;;;;25.20;61.00;;;;;;10187825;28;94664;-54
2023/08/23 17:09:02;;;;;;;;;;;25.30;59.70;;;;;;10182797;28;93482;-54
2023/08/23 17:14:05;;;;;;;;;;;25.30;59.00;;;;;;10195504;28;94095;-55
2023/08/23 17:19:06;;;;;;;;;;;25.20;58.20;;;;;;10182458;28;93879;-55
2023/08/23 17:24:08;;;;;;;;;;;25.20;57.90;;;;;;10190637;28;94738;-56
2023/08/23 17:29:10;;;;;;;;;;;25.10;57.90;;;;;;10200897;28;94137;-55
2023/08/23 17:34:12;;;;;;;;;;;25.10;57.80;;;;;;10187609;28;93767;-56
2023/08/23 17:39:14;;;;;;;;;;;25.00;57.80;;;;;;10184881;28;94446;-55
2023/08/23 17:44:18;;;;;;;;;;;24.90;57.70;;;;;;10184244;28;93641;-55
2023/08/23 17:49:20;;;;;;;;;;;24.90;57.50;;;;;;10179129;28;96969;-56
2023/08/23 17:54:21;;;;;;;;;;;24.80;57.50;;;;;;10185634;28;93601;-58
2023/08/23 17:59:28;;;;;;;;;;;24.80;57.40;;;;;;10179008;28;95722;-55
2023/08/23 18:04:30;;;;;;;;;;;24.70;57.40;;;;;;10193655;28;94465;-55
2023/08/23 18:09:32;;;;;;;;;;;24.70;57.70;;;;;;10215841;28;94301;-55
2023/08/23 18:14:34;;;;;;;;;;;24.70;57.80;;;;;;10201941;28;94479;-56
2023/08/23 18:19:36;;;;;;;;;;;24.70;58.00;;;;;;10216542;28;94129;-56
2023/08/23 18:24:38;;;;;;;;;;;24.60;58.00;;;;;;10188561;28;92728;-55
2023/08/23 18:29:40;;;;;;;;;;;24.60;58.10;;;;;;10201809;28;94733;-55
2023/08/23 18:34:42;;;;;;;;;;;24.60;58.30;;;;;;10198732;28;93851;-55
2023/08/23 18:39:44;;;;;;;;;;;24.60;58.30;;;;;;10197378;28;96815;-57
2023/08/23 18:44:46;;;;;;;;;;;24.60;58.50;;;;;;10187524;28;94475;-55
2023/08/23 18:49:49;;;;;;;;;;;24.60;58.50;;;;;;10197800;28;92961;-55
2023/08/23 18:54:50;;;;;;;;;;;24.60;58.30;;;;;;10204107;28;94200;-56
2023/08/23 18:59:52;;;;;;;;;;;24.50;58.10;;;;;;10169630;28;93424;-55
2023/08/23 19:04:55;;;;;;;;;;;24.40;58.10;;;;;;10175690;28;95533;-55
2023/08/23 19:10:00;;;;;;;;;;;24.40;58.20;;;;;;10195208;28;94038;-55
2023/08/23 19:15:02;;;;;;;;;;;24.40;58.40;;;;;;10167835;28;94088;-55
2023/08/23 19:20:04;;;;;;;;;;;24.30;58.50;;;;;;10177560;28;93452;-55
2023/08/23 19:25:06;;;;;;;;;;;24.30;58.60;;;;;;10194221;28;94365;-56
2023/08/23 19:30:09;;;;;;;;;;;24.30;58.60;;;;;;10193528;28;96226;-55
2023/08/23 19:35:11;;;;;;;;;;;24.30;58.70;;;;;;10195777;28;93615;-52
2023/08/23 19:40:13;;;;;;;;;;;24.30;59.10;;;;;;10193214;28;94880;-54
2023/08/23 19:45:14;;;;;;;;;;;24.30;59.30;;;;;;10185435;28;95018;-55
2023/08/23 19:50:16;;;;;;;;;;;24.30;59.00;;;;;;10184118;28;93396;-56
2023/08/23 19:55:18;;;;;;;;;;;24.40;59.20;;;;;;10194694;28;93878;-56
2023/08/23 20:00:20;;;;;;;;;;;24.30;59.20;;;;;;10193625;28;94548;-56
2023/08/23 20:05:24;;;;;;;;;;;24.30;59.40;;;;;;10196383;28;93859;-56
2023/08/23 20:10:26;;;;;;;;;;;24.30;59.40;;;;;;10210330;28;93401;-56
2023/08/23 20:15:28;;;;;;;;;;;24.30;59.50;;;;;;10196742;28;93600;-56
2023/08/23 20:20:30;;;;;;;;;;;24.30;59.50;;;;;;10192172;28;96841;-56
2023/08/23 20:25:32;;;;;;;;;;;24.30;59.50;;;;;;10194116;28;94432;-56
2023/08/23 20:30:38;;;;;;;;;;;24.20;59.50;;;;;;10192421;28;94806;-56
2023/08/23 20:35:39;;;;;;;;;;;24.20;59.70;;;;;;10188762;28;94423;-56
2023/08/23 20:40:41;;;;;;;;;;;24.20;59.60;;;;;;10195946;28;93795;-56
2023/08/23 20:45:43;;;;;;;;;;;24.20;59.70;;;;;;10190703;28;93838;-56
2023/08/23 20:50:45;;;;;;;;;;;24.20;59.70;;;;;;10191420;28;94707;-56
2023/08/23 20:55:48;;;;;;;;;;;24.20;59.80;;;;;;10197332;28;93712;-56
2023/08/23 21:00:55;;;;;;;;;;;24.20;59.80;;;;;;10196014;28;93944;-56
2023/08/23 21:05:57;;;;;;;;;;;24.20;59.90;;;;;;10186179;28;92710;-56
2023/08/23 21:11:00;;;;;;;;;;;24.30;60.00;;;;;;10208159;28;95908;-56
2023/08/23 21:16:02;;;;;;;;;;;24.20;60.10;;;;;;10193390;28;96137;-56
2023/08/23 21:21:04;;;;;;;;;;;24.30;60.30;;;;;;10194400;28;94557;-56
2023/08/23 21:26:06;;;;;;;;;;;24.20;60.30;;;;;;10193548;28;93259;-56
2023/08/23 21:31:07;;;;;;;;;;;24.30;61.30;;;;;;10195270;28;94583;-56
2023/08/23 21:36:09;;;;;;;;;;;24.20;60.30;;;;;;10210435;28;94199;-56
2023/08/23 21:41:11;;;;;;;;;;;24.20;60.30;;;;;;10197085;28;94667;-56
2023/08/23 21:46:13;;;;;;;;;;;24.20;60.30;;;;;;10201935;28;93720;-68
2023/08/23 21:51:15;;;;;;;;;;;24.20;60.30;;;;;;10198543;28;93708;-56
2023/08/23 21:56:16;;;;;;;;;;;24.20;60.30;;;;;;10188697;28;94379;-57
2023/08/23 22:01:18;;;;;;;;;;;24.20;60.30;;;;;;10198945;28;96849;-56
2023/08/23 22:06:21;;;;;;;;;;;24.20;60.30;;;;;;10200013;28;93100;-56
2023/08/23 22:11:23;;;;;;;;;;;24.20;60.30;;;;;;10197484;28;93536;-56
2023/08/23 22:16:25;;;;;;;;;;;24.20;60.30;;;;;;10190660;28;96243;-57
2023/08/23 22:21:27;;;;;;;;;;;24.20;60.30;;;;;;10199506;28;94425;-56
2023/08/23 22:26:31;;;;;;;;;;;24.20;60.20;;;;;;10199622;28;94557;-56
2023/08/23 22:31:33;;;;;;;;;;;24.20;60.20;;;;;;10199169;28;94530;-57
2023/08/23 22:36:35;;;;;;;;;;;24.20;60.30;;;;;;10200841;28;94760;-56
2023/08/23 22:41:37;;;;;;;;;;;24.20;60.20;;;;;;10194614;28;94406;-57
2023/08/23 22:46:39;;;;;;;;;;;24.20;60.20;;;;;;10198749;28;93835;-56
2023/08/23 22:51:40;;;;;;;;;;;24.20;60.20;;;;;;10194982;28;95343;-56
2023/08/23 22:56:42;;;;;;;;;;;24.20;60.20;;;;;;10213780;28;94162;-56
2023/08/23 23:01:44;;;;;;;;;;;24.20;60.20;;;;;;10199470;28;93923;-60
2023/08/23 23:06:47;;;;;;;;;;;24.20;60.10;;;;;;10198115;28;94801;-56
2023/08/23 23:11:49;;;;;;;;;;;24.10;60.10;;;;;;10192305;28;94575;-56
2023/08/23 23:16:52;;;;;;;;;;;24.10;60.10;;;;;;10199028;28;94461;-56
2023/08/23 23:21:54;;;;;;;;;;;24.10;60.10;;;;;;10188853;28;94556;-57
2023/08/23 23:26:56;;;;;;;;;;;24.10;60.10;;;;;;10203925;28;93660;-58
2023/08/23 23:31:58;;;;;;;;;;;24.10;60.20;;;;;;10198260;28;93260;-57
2023/08/23 23:37:00;;;;;;;;;;;24.10;60.10;;;;;;10199042;28;93587;-56
2023/08/23 23:42:02;;;;;;;;;;;24.00;60.10;;;;;;10194675;28;97449;-57
2023/08/23 23:47:05;;;;;;;;;;;24.10;60.20;;;;;;10197833;28;94118;-56
2023/08/23 23:52:07;;;;;;;;;;;24.00;60.20;;;;;;10194273;28;93487;-57
2023/08/23 23:57:09;;;;;;;;;;;24.00;60.10;;;;;;10198415;28;93805;-62
